createdAt,value
2022-11-24T00:00:55.886Z,100131.22
2022-11-24T00:03:23.909Z,100138.06
2022-11-24T00:05:51.983Z,100134.75
2022-11-24T00:08:20.046Z,100138.19
2022-11-24T00:10:47.935Z,100143.44
2022-11-24T00:13:15.837Z,100134.75
2022-11-24T00:15:45.222Z,100145.50
2022-11-24T00:18:13.148Z,100142.06
2022-11-24T00:20:41.041Z,100129.63
2022-11-24T00:23:09.036Z,100139.28
2022-11-24T00:25:36.933Z,100137.81
2022-11-24T00:28:04.989Z,100136.94
2022-11-24T00:30:34.927Z,100141.59
2022-11-24T00:33:04.306Z,100140.72
2022-11-24T00:35:32.252Z,100140.13
2022-11-24T00:38:00.164Z,100135.47
2022-11-24T00:40:33.585Z,100139.03
2022-11-24T00:43:03.710Z,100138.75
2022-11-24T00:45:31.622Z,100144.13
2022-11-24T00:47:59.481Z,100141.13
2022-11-24T00:50:28.841Z,100147.44
2022-11-24T00:52:56.748Z,100147.59
2022-11-24T00:55:24.645Z,100155.28
2022-11-24T00:57:52.589Z,100154.41
2022-11-24T01:00:20.697Z,100148.94
2022-11-24T01:02:48.753Z,100150.88
2022-11-24T01:05:16.742Z,100149.78
2022-11-24T01:07:46.129Z,100155.91
2022-11-24T01:10:14.044Z,100155.50
2022-11-24T01:12:41.942Z,100164.06
2022-11-24T01:15:10.313Z,100167.50
2022-11-24T01:17:38.288Z,100172.88
2022-11-24T01:20:07.127Z,100170.19
2022-11-24T01:22:35.055Z,100171.16
2022-11-24T01:25:04.617Z,100172.13
2022-11-24T01:27:32.488Z,100170.44
2022-11-24T01:30:00.399Z,100174.09
2022-11-24T01:32:28.355Z,100172.28
2022-11-24T01:34:56.338Z,100174.09
2022-11-24T01:37:24.241Z,100171.66
2022-11-24T01:39:52.147Z,100175.31
2022-11-24T01:42:21.633Z,100180.94
2022-11-24T01:44:50.282Z,100190.19
2022-11-24T01:47:28.556Z,100184.22
2022-11-24T01:49:59.013Z,100183.78
2022-11-24T01:52:30.323Z,100183.56
2022-11-24T01:55:01.274Z,100189.53
2022-11-24T01:57:33.011Z,100194.03
2022-11-24T02:00:05.263Z,100192.81
2022-11-24T02:02:33.284Z,100190.47
2022-11-24T02:05:07.241Z,100191.56
2022-11-24T02:07:36.295Z,100201.00
2022-11-24T02:10:06.369Z,100193.31
2022-11-24T02:12:36.254Z,100203.81
2022-11-24T02:15:04.260Z,100199.41
2022-11-24T02:17:32.211Z,100198.44
2022-11-24T02:20:02.123Z,100206.00
2022-11-24T02:22:35.031Z,100201.94
2022-11-24T02:25:11.708Z,100208.41
2022-11-24T02:27:41.183Z,100199.59
2022-11-24T02:30:09.704Z,100202.84
2022-11-24T02:32:40.423Z,100199.56
2022-11-24T02:35:09.265Z,100198.06
2022-11-24T02:37:37.146Z,100200.25
2022-11-24T02:40:05.533Z,100196.94
2022-11-24T02:42:35.998Z,100199.75
2022-11-24T02:45:06.273Z,100207.28
2022-11-24T02:47:34.195Z,100208.59
2022-11-24T02:50:02.116Z,100216.88
2022-11-24T02:52:30.033Z,100214.09
2022-11-24T02:54:57.957Z,100217.00
2022-11-24T02:57:26.018Z,100217.50
2022-11-24T02:59:53.945Z,100219.47
2022-11-24T03:02:23.264Z,100224.69
2022-11-24T03:04:51.201Z,100228.03
2022-11-24T03:07:19.344Z,100227.91
2022-11-24T03:09:47.279Z,100231.31
2022-11-24T03:12:15.280Z,100236.38
2022-11-24T03:14:43.165Z,100235.28
2022-11-24T03:17:11.088Z,100242.03
2022-11-24T03:19:40.497Z,100243.00
2022-11-24T03:22:08.472Z,100234.78
2022-11-24T03:24:36.580Z,100245.38
2022-11-24T03:27:04.808Z,100256.13
2022-11-24T03:29:32.892Z,100253.94
2022-11-24T03:32:00.840Z,100250.63
2022-11-24T03:34:28.716Z,100251.25
2022-11-24T03:36:58.447Z,100254.59
2022-11-24T03:39:26.391Z,100252.00
2022-11-24T03:41:54.268Z,100246.63
2022-11-24T03:44:22.436Z,100255.41
2022-11-24T03:46:53.329Z,100256.19
2022-11-24T03:49:21.243Z,100266.97
2022-11-24T03:51:49.176Z,100272.13
2022-11-24T03:54:18.439Z,100274.81
2022-11-24T03:56:46.397Z,100274.06
2022-11-24T03:59:14.417Z,100282.31
2022-11-24T04:01:42.344Z,100279.50
2022-11-24T04:04:11.718Z,100285.25
2022-11-24T04:06:39.824Z,100281.22
2022-11-24T04:09:07.974Z,100280.75
2022-11-24T04:11:54.628Z,100286.84
2022-11-24T04:14:22.530Z,100288.47
2022-11-24T04:16:50.445Z,100293.72
2022-11-24T04:19:18.503Z,100287.84
2022-11-24T04:21:46.390Z,100296.78
2022-11-24T04:24:14.758Z,100298.97
2022-11-24T04:26:44.079Z,100299.84
2022-11-24T04:29:12.153Z,100302.53
2022-11-24T04:31:40.141Z,100311.91
2022-11-24T04:34:08.088Z,100314.38
2022-11-24T04:36:35.985Z,100312.41
2022-11-24T04:39:19.697Z,100315.25
2022-11-24T04:41:53.388Z,100312.78
2022-11-24T04:44:21.315Z,100311.56
2022-11-24T04:46:49.367Z,100316.09
2022-11-24T04:49:17.348Z,100321.25
2022-11-24T04:51:45.263Z,100323.94
2022-11-24T04:54:14.291Z,100325.88
2022-11-24T04:56:42.711Z,100328.56
2022-11-24T04:59:14.877Z,100333.69
2022-11-24T05:01:43.069Z,100328.31
2022-11-24T05:04:11.762Z,100334.44
2022-11-24T05:06:39.769Z,100334.22
2022-11-24T05:09:08.546Z,100331.00
2022-11-24T05:11:35.472Z,100342.28
2022-11-24T05:14:03.412Z,100344.00
2022-11-24T05:16:32.790Z,100360.00
2022-11-24T05:19:00.749Z,100355.34
2022-11-24T05:21:29.196Z,100361.38
2022-11-24T05:23:57.187Z,100356.22
2022-11-24T05:26:25.105Z,100361.00
2022-11-24T05:28:53.014Z,100354.97
2022-11-24T05:31:21.045Z,100362.81
2022-11-24T05:33:50.396Z,100363.19
2022-11-24T05:36:32.146Z,100367.78
2022-11-24T05:39:00.117Z,100364.59
2022-11-24T05:41:28.267Z,100368.28
2022-11-24T05:43:56.145Z,100366.16
2022-11-24T05:46:24.033Z,100363.56
2022-11-24T05:48:53.376Z,100360.38
2022-11-24T05:51:21.264Z,100369.53
2022-11-24T05:53:49.133Z,100370.06
2022-11-24T05:56:17.059Z,100374.91
2022-11-24T05:58:45.212Z,100382.34
2022-11-24T06:01:13.111Z,100385.16
2022-11-24T06:03:40.992Z,100377.53
2022-11-24T06:06:10.349Z,100385.16
2022-11-24T06:08:38.245Z,100384.94
2022-11-24T06:11:18.588Z,100394.81
2022-11-24T06:13:48.272Z,100395.94
2022-11-24T06:16:16.768Z,100392.50
2022-11-24T06:18:44.670Z,100389.28
2022-11-24T06:21:13.995Z,100397.47
2022-11-24T06:23:42.096Z,100401.91
2022-11-24T06:26:10.442Z,100396.81
2022-11-24T06:28:38.345Z,100406.69
2022-11-24T06:31:06.881Z,100409.28
2022-11-24T06:33:35.741Z,100420.81
2022-11-24T06:36:04.947Z,100413.59
2022-11-24T06:38:36.210Z,100421.97
2022-11-24T06:41:06.468Z,100424.22
2022-11-24T06:43:36.595Z,100432.06
2022-11-24T06:46:05.293Z,100435.84
2022-11-24T06:48:33.217Z,100434.97
2022-11-24T06:51:01.487Z,100434.25
2022-11-24T06:53:31.611Z,100431.66
2022-11-24T06:56:02.124Z,100434.03
2022-11-24T06:58:30.057Z,100437.47
2022-11-24T07:00:58.115Z,100437.13
2022-11-24T07:03:26.099Z,100442.44
2022-11-24T07:05:57.638Z,100448.03
2022-11-24T07:08:26.106Z,100445.78
2022-11-24T07:10:54.045Z,100454.78
2022-11-24T07:13:23.439Z,100454.78
2022-11-24T07:15:51.307Z,100456.91
2022-11-24T07:18:19.416Z,100461.13
2022-11-24T07:20:47.336Z,100466.84
2022-11-24T07:23:15.281Z,100472.72
2022-11-24T07:25:43.172Z,100471.13
2022-11-24T07:28:11.124Z,100475.84
2022-11-24T07:30:40.593Z,100483.16
2022-11-24T07:33:08.577Z,100485.31
2022-11-24T07:35:36.455Z,100484.09
2022-11-24T07:38:05.069Z,100492.06
2022-11-24T07:40:33.081Z,100490.13
2022-11-24T07:43:02.408Z,100497.66
2022-11-24T07:45:30.401Z,100505.50
2022-11-24T07:47:59.713Z,100510.75
2022-11-24T07:50:27.723Z,100515.16
2022-11-24T07:52:55.609Z,100514.41
2022-11-24T07:55:23.764Z,100529.56
2022-11-24T07:57:51.649Z,100522.63
2022-11-24T08:00:19.925Z,100530.97
2022-11-24T08:02:47.834Z,100531.00
2022-11-24T08:05:17.231Z,100527.72
2022-11-24T08:07:45.535Z,100531.88
2022-11-24T08:10:13.516Z,100532.91
2022-11-24T08:12:43.822Z,100537.44
2022-11-24T08:15:12.663Z,100539.00
2022-11-24T08:17:40.689Z,100535.97
2022-11-24T08:20:10.175Z,100548.13
2022-11-24T08:22:39.548Z,100554.09
2022-11-24T08:25:08.443Z,100547.31
2022-11-24T08:27:36.373Z,100551.69
2022-11-24T08:30:04.332Z,100545.34
2022-11-24T08:32:32.220Z,100555.75
2022-11-24T08:35:13.396Z,100553.56
2022-11-24T08:37:43.408Z,100548.09
2022-11-24T08:40:12.880Z,100551.91
2022-11-24T08:42:40.966Z,100556.69
2022-11-24T08:45:20.554Z,100560.53
2022-11-24T08:47:53.150Z,100570.03
2022-11-24T08:50:21.076Z,100567.63
2022-11-24T08:52:50.428Z,100575.91
2022-11-24T08:55:18.347Z,100571.84
2022-11-24T08:57:46.241Z,100577.88
2022-11-24T09:00:22.157Z,100580.56
2022-11-24T09:02:59.693Z,100581.94
2022-11-24T09:05:53.054Z,100587.88
2022-11-24T09:08:16.911Z,100583.13
2022-11-24T09:10:44.829Z,100591.97
2022-11-24T09:13:12.719Z,100587.53
2022-11-24T09:15:40.712Z,100592.47
2022-11-24T09:18:08.584Z,100586.84
2022-11-24T09:20:36.567Z,100595.19
2022-11-24T09:23:04.449Z,100594.94
2022-11-24T09:25:33.891Z,100601.38
2022-11-24T09:28:01.819Z,100602.97
2022-11-24T09:30:29.918Z,100607.75
2022-11-24T09:32:58.364Z,100612.03
2022-11-24T09:35:27.036Z,100613.88
2022-11-24T09:37:54.919Z,100612.97
2022-11-24T09:40:23.774Z,100613.84
2022-11-24T09:42:57.116Z,100612.75
2022-11-24T09:46:04.025Z,100614.47
2022-11-24T09:48:27.384Z,100620.59
2022-11-24T09:50:55.481Z,100624.88
2022-11-24T09:53:30.200Z,100622.94
2022-11-24T09:56:00.938Z,100617.84
2022-11-24T09:58:38.735Z,100627.19
2022-11-24T10:01:09.507Z,100629.53
2022-11-24T10:03:39.475Z,100629.56
2022-11-24T10:06:22.099Z,100634.44
2022-11-24T10:09:04.987Z,100636.28
2022-11-24T10:11:38.066Z,100640.47
2022-11-24T10:14:27.623Z,100643.66
2022-11-24T10:17:03.296Z,100649.06
2022-11-24T10:19:37.807Z,100649.28
2022-11-24T10:22:19.572Z,100642.28
2022-11-24T10:25:09.282Z,100652.56
2022-11-24T10:27:39.883Z,100655.41
2022-11-24T10:30:17.158Z,100658.97
2022-11-24T10:32:48.419Z,100667.19
2022-11-24T10:35:19.534Z,100660.56
2022-11-24T10:37:53.257Z,100657.81
2022-11-24T10:40:55.364Z,100664.97
2022-11-24T10:43:15.009Z,100661.78
2022-11-24T10:45:44.264Z,100666.94
2022-11-24T10:48:18.902Z,100669.16
2022-11-24T10:50:46.824Z,100663.28
2022-11-24T10:53:19.116Z,100666.44
2022-11-24T10:56:05.806Z,100668.38
2022-11-24T10:58:38.050Z,100668.59
2022-11-24T11:01:25.369Z,100669.22
2022-11-24T11:03:55.205Z,100674.22
2022-11-24T11:06:24.486Z,100671.97
2022-11-24T11:09:17.553Z,100674.69
2022-11-24T11:11:48.312Z,100662.59
2022-11-24T11:14:30.817Z,100678.00
2022-11-24T11:17:00.602Z,100673.09
2022-11-24T11:19:54.134Z,100683.88
2022-11-24T11:22:25.673Z,100687.16
2022-11-24T11:25:08.776Z,100691.56
2022-11-24T11:27:37.049Z,100684.22
2022-11-24T11:36:11.995Z,100697.09
2022-11-24T11:38:41.098Z,100712.03
2022-11-24T11:41:13.274Z,100717.63
2022-11-24T11:43:41.961Z,100718.00
2022-11-24T11:46:13.545Z,100715.19
2022-11-24T11:48:46.664Z,100725.22
2022-11-24T11:51:28.237Z,100721.19
2022-11-24T11:54:01.012Z,100726.59
2022-11-24T11:56:31.394Z,100725.16
2022-11-24T11:59:41.861Z,100731.06
2022-11-24T12:02:25.175Z,100743.63
2022-11-24T12:04:58.468Z,100743.00
2022-11-24T12:07:42.978Z,100742.78
2022-11-24T12:10:18.417Z,100752.94
2022-11-24T12:13:11.770Z,100747.28
2022-11-24T12:15:42.650Z,100753.72
2022-11-24T12:18:48.673Z,100750.25
2022-11-24T12:21:22.901Z,100755.66
2022-11-24T12:24:02.149Z,100755.66
2022-11-24T12:26:36.461Z,100753.81
2022-11-24T12:29:19.329Z,100759.13
2022-11-24T12:31:54.003Z,100762.19
2022-11-24T12:34:28.458Z,100765.75
2022-11-24T12:37:13.242Z,100765.34
2022-11-24T12:39:46.910Z,100765.97
2022-11-24T12:42:23.469Z,100763.13
2022-11-24T12:45:07.241Z,100770.41
2022-11-24T12:47:44.931Z,100758.94
2022-11-24T12:50:14.653Z,100766.84
2022-11-24T12:52:52.897Z,100774.09
2022-11-24T12:55:24.415Z,100769.31
2022-11-24T12:57:56.178Z,100780.38
2022-11-24T13:00:25.171Z,100795.25
2022-11-24T13:03:06.123Z,100796.13
2022-11-24T13:05:40.370Z,100791.94
2022-11-24T13:08:09.745Z,100798.84
2022-11-24T13:10:56.233Z,100803.50
2022-11-24T13:13:47.733Z,100791.94
2022-11-24T13:19:10.304Z,100794.75
2022-11-24T13:21:57.841Z,100794.88
2022-11-24T13:24:30.775Z,100804.00
2022-11-24T13:27:27.198Z,100805.84
2022-11-24T13:29:55.481Z,100813.47
2022-11-24T13:33:02.872Z,100814.34
2022-11-24T13:35:31.084Z,100822.94
2022-11-24T13:37:59.377Z,100820.22
2022-11-24T13:41:12.968Z,100817.06
2022-11-24T13:43:32.957Z,100825.03
2022-11-24T13:46:00.946Z,100824.91
2022-11-24T13:48:54.645Z,100825.03
2022-11-24T13:51:26.101Z,100830.44
2022-11-24T13:53:55.574Z,100833.25
2022-11-24T13:56:28.132Z,100834.25
2022-11-24T13:58:58.143Z,100835.72
2022-11-24T14:01:26.719Z,100837.94
2022-11-24T14:07:02.386Z,100846.78
2022-11-24T14:09:37.630Z,100848.53
2022-11-24T14:12:15.217Z,100850.09
2022-11-24T14:14:47.950Z,100858.06
2022-11-24T14:17:18.677Z,100859.94
2022-11-24T14:19:48.063Z,100871.88
2022-11-24T14:22:18.992Z,100869.50
2022-11-24T14:24:48.035Z,100862.66
2022-11-24T14:27:18.654Z,100860.28
2022-11-24T14:29:57.032Z,100880.22
2022-11-24T14:32:25.119Z,100877.38
2022-11-24T14:34:54.736Z,100878.63
2022-11-24T14:37:23.028Z,100884.25
2022-11-24T14:39:50.956Z,100893.34
2022-11-24T14:42:21.959Z,100901.56
2022-11-24T14:44:52.864Z,100898.25
2022-11-24T14:47:30.172Z,100910.06
2022-11-24T14:50:07.897Z,100904.03
2022-11-24T14:52:36.509Z,100901.41
2022-11-24T14:55:21.730Z,100904.13
2022-11-24T14:57:52.085Z,100898.72
2022-11-24T15:00:27.133Z,100904.38
2022-11-24T15:02:56.766Z,100905.38
2022-11-24T15:05:25.864Z,100914.59
2022-11-24T15:08:02.034Z,100917.63
2022-11-24T15:10:33.885Z,100931.63
2022-11-24T15:13:05.541Z,100915.66
2022-11-24T15:15:35.401Z,100928.31
2022-11-24T15:18:04.659Z,100922.03
2022-11-24T15:20:35.267Z,100915.66
2022-11-24T15:23:23.100Z,100903.63
2022-11-24T15:25:51.592Z,100910.25
2022-11-24T15:28:25.619Z,100917.41
2022-11-24T15:30:54.728Z,100902.75
2022-11-24T15:33:23.979Z,100921.16
2022-11-24T15:35:51.898Z,100924.59
2022-11-24T15:38:19.898Z,100912.56
2022-11-24T15:40:49.034Z,100920.16
2022-11-24T15:43:23.957Z,100922.69
2022-11-24T15:45:51.913Z,100926.09
2022-11-24T15:48:19.974Z,100928.75
2022-11-24T15:50:48.244Z,100928.78
2022-11-24T15:53:18.557Z,100933.97
2022-11-24T15:55:46.486Z,100922.06
2022-11-24T15:58:15.251Z,100924.34
2022-11-24T16:00:45.038Z,100919.09
2022-11-24T16:03:44.949Z,100917.97
2022-11-24T16:06:00.933Z,100926.19
2022-11-24T16:08:28.835Z,100923.31
2022-11-24T16:10:57.117Z,100930.56
2022-11-24T16:13:25.125Z,100931.19
2022-11-24T16:15:54.461Z,100930.88
2022-11-24T16:18:22.469Z,100939.41
2022-11-24T16:20:51.312Z,100942.63
2022-11-24T16:23:19.327Z,100946.94
2022-11-24T16:25:47.292Z,100942.44
2022-11-24T16:28:15.193Z,100950.69
2022-11-24T16:30:43.131Z,100947.44
2022-11-24T16:33:12.436Z,100950.06
2022-11-24T16:35:40.592Z,100951.88
2022-11-24T16:38:10.582Z,100949.19
2022-11-24T16:40:38.592Z,100954.47
2022-11-24T16:43:06.553Z,100967.13
2022-11-24T16:45:34.762Z,100961.44
2022-11-24T16:48:02.721Z,100973.75
2022-11-24T16:50:32.117Z,100976.53
2022-11-24T16:53:00.258Z,100982.22
2022-11-24T16:55:28.216Z,100982.66
2022-11-24T16:57:56.192Z,100980.56
2022-11-24T17:00:24.423Z,100983.19
2022-11-24T17:02:52.517Z,100980.59
2022-11-24T17:05:20.500Z,100980.31
2022-11-24T17:07:49.878Z,100982.13
2022-11-24T17:10:17.896Z,100984.19
2022-11-24T17:12:45.985Z,100986.44
2022-11-24T17:15:32.665Z,100990.84
2022-11-24T17:18:23.465Z,100994.50
2022-11-24T17:20:50.649Z,100989.44
2022-11-24T17:23:20.129Z,100999.25
2022-11-24T17:25:48.470Z,100997.66
2022-11-24T17:28:16.376Z,100989.72
2022-11-24T17:30:44.365Z,100995.38
2022-11-24T17:33:12.450Z,101000.34
2022-11-24T17:35:40.397Z,101003.59
2022-11-24T17:38:08.291Z,101002.19
2022-11-24T17:40:37.608Z,101010.50
2022-11-24T17:43:05.588Z,101019.00
2022-11-24T17:45:33.582Z,101017.81
2022-11-24T17:48:01.836Z,101018.28
2022-11-24T17:50:29.782Z,101024.63
2022-11-24T17:52:57.673Z,101025.59
2022-11-24T17:55:25.560Z,101026.78
2022-11-24T17:57:54.903Z,101032.16
2022-11-24T18:00:23.183Z,101036.59
2022-11-24T18:02:51.128Z,101032.41
2022-11-24T18:05:19.156Z,101024.19
2022-11-24T18:07:47.197Z,101035.44
2022-11-24T18:10:15.264Z,101038.00
2022-11-24T18:12:43.187Z,101034.88
2022-11-24T18:15:13.616Z,101045.66
2022-11-24T18:17:41.629Z,101038.66
2022-11-24T18:20:10.263Z,101047.72
2022-11-24T18:23:04.125Z,101039.41
2022-11-24T18:25:26.237Z,101043.63
2022-11-24T18:27:54.186Z,101036.91
2022-11-24T18:30:23.483Z,101048.47
2022-11-24T18:32:51.495Z,101043.50
2022-11-24T18:35:19.420Z,101040.94
2022-11-24T18:37:47.334Z,101041.56
2022-11-24T18:40:15.579Z,101039.06
2022-11-24T18:42:43.513Z,101042.22
2022-11-24T18:45:12.252Z,101051.38
2022-11-24T18:47:41.536Z,101049.66
2022-11-24T18:50:10.337Z,101056.88
2022-11-24T18:52:38.237Z,101060.63
2022-11-24T18:55:06.631Z,101060.00
2022-11-24T18:57:34.574Z,101062.50
2022-11-24T19:00:02.766Z,101059.16
2022-11-24T19:02:30.862Z,101050.94
2022-11-24T19:05:00.346Z,101050.94
2022-11-24T19:07:28.300Z,101050.94
2022-11-24T19:09:56.224Z,101052.56
2022-11-24T19:12:24.152Z,101047.16
2022-11-24T19:14:52.066Z,101044.38
2022-11-24T19:17:20.032Z,101040.28
2022-11-24T19:19:48.576Z,101045.44
2022-11-24T19:22:17.865Z,101042.09
2022-11-24T19:24:46.644Z,101041.78
2022-11-24T19:27:16.524Z,101042.84
2022-11-24T19:29:44.713Z,101041.69
2022-11-24T19:32:12.655Z,101048.16
2022-11-24T19:34:40.668Z,101043.41
2022-11-24T19:37:08.548Z,101045.53
2022-11-24T19:39:37.816Z,101055.25
2022-11-24T19:42:05.898Z,101047.25
2022-11-24T19:44:34.170Z,101050.47
2022-11-24T19:47:02.229Z,101058.75
2022-11-24T19:49:30.200Z,101064.56
2022-11-24T19:51:58.109Z,101057.44
2022-11-24T19:54:26.185Z,101057.97
2022-11-24T19:56:56.564Z,101062.78
2022-11-24T19:59:26.395Z,101066.41
2022-11-24T20:01:55.074Z,101066.81
2022-11-24T20:04:23.380Z,101075.13
2022-11-24T20:06:51.540Z,101071.44
2022-11-24T20:09:19.998Z,101060.78
2022-11-24T20:11:48.664Z,101066.38
2022-11-24T20:14:19.212Z,101063.31
2022-11-24T20:16:48.534Z,101069.09
2022-11-24T20:19:17.496Z,101075.53
2022-11-24T20:21:47.863Z,101070.16
2022-11-24T20:24:17.446Z,101071.53
2022-11-24T20:26:47.414Z,101061.09
2022-11-24T20:29:17.291Z,101068.78
2022-11-24T20:31:46.824Z,101063.59
2022-11-24T20:34:15.156Z,101068.31
2022-11-24T20:36:45.797Z,101073.78
2022-11-24T20:39:15.797Z,101075.72
2022-11-24T20:41:43.807Z,101073.97
2022-11-24T20:44:15.155Z,101082.25
2022-11-24T20:46:46.008Z,101079.28
2022-11-24T20:49:16.459Z,101082.16
2022-11-24T20:51:47.081Z,101073.16
2022-11-24T20:54:16.449Z,101084.09
2022-11-24T20:56:46.498Z,101090.22
2022-11-24T20:59:15.444Z,101096.28
2022-11-24T21:01:46.097Z,101102.03
2022-11-24T21:04:16.310Z,101109.41
2022-11-24T21:06:44.227Z,101102.53
2022-11-24T21:09:12.393Z,101105.66
2022-11-24T21:11:40.911Z,101111.88
2022-11-24T21:14:09.614Z,101112.28
2022-11-24T21:16:38.903Z,101109.47
2022-11-24T21:19:11.339Z,101114.38
2022-11-24T21:21:39.760Z,101113.50
2022-11-24T21:24:11.111Z,101120.81
2022-11-24T21:26:40.409Z,101119.94
2022-11-24T21:29:09.154Z,101122.44
2022-11-24T21:31:38.408Z,101121.41
2022-11-24T21:34:08.728Z,101120.13
2022-11-24T21:36:40.710Z,101130.13
2022-11-24T21:39:08.803Z,101126.09
2022-11-24T21:41:36.712Z,101127.13
2022-11-24T21:44:04.772Z,101126.19
2022-11-24T21:46:39.065Z,101131.34
2022-11-24T21:49:13.268Z,101124.09
2022-11-24T21:51:41.187Z,101128.78
2022-11-24T21:54:09.654Z,101135.00
2022-11-24T21:56:37.535Z,101128.09
2022-11-24T21:59:05.431Z,101125.31
2022-11-24T22:01:33.442Z,101121.69
2022-11-24T22:04:01.414Z,101116.03
2022-11-24T22:06:30.716Z,101121.56
2022-11-24T22:08:58.601Z,101114.16
2022-11-24T22:11:26.619Z,101113.94
2022-11-24T22:13:54.725Z,101119.69
2022-11-24T22:16:24.667Z,101118.66
2022-11-24T22:18:52.843Z,101116.84
2022-11-24T22:21:22.739Z,101120.22
2022-11-24T22:23:53.684Z,101110.34
2022-11-24T22:26:23.199Z,101106.91
2022-11-24T22:28:51.931Z,101108.81
2022-11-24T22:31:21.656Z,101105.53
2022-11-24T22:33:50.536Z,101106.59
2022-11-24T22:36:20.727Z,101105.47
2022-11-24T22:38:49.356Z,101106.31
2022-11-24T22:41:19.196Z,101100.06
2022-11-24T22:43:48.720Z,101096.41
2022-11-24T22:46:17.973Z,101101.59
2022-11-24T22:48:46.788Z,101098.25
2022-11-24T22:51:15.849Z,101097.47
2022-11-24T22:53:47.427Z,101100.78
2022-11-24T22:56:15.747Z,101101.78
2022-11-24T22:58:45.269Z,101101.13
2022-11-24T23:01:14.696Z,101090.94
2022-11-24T23:03:42.850Z,101098.94
2022-11-24T23:06:13.160Z,101099.88
2022-11-24T23:08:41.271Z,101098.41
2022-11-24T23:11:13.372Z,101098.59
2022-11-24T23:13:41.321Z,101098.72
2022-11-24T23:16:12.731Z,101098.59
2022-11-24T23:18:41.217Z,101099.66
2022-11-24T23:21:11.388Z,101095.44
2022-11-24T23:23:39.397Z,101092.94
2022-11-24T23:26:09.877Z,101094.69
2022-11-24T23:28:37.992Z,101099.53
2022-11-24T23:31:08.454Z,101093.69
2022-11-24T23:33:38.002Z,101090.34
2022-11-24T23:36:07.340Z,101094.34
2022-11-24T23:38:35.397Z,101087.34
2022-11-24T23:41:05.161Z,101081.59
2022-11-24T23:43:33.126Z,101090.72
2022-11-24T23:46:04.267Z,101089.16
2022-11-24T23:48:32.196Z,101086.41
2022-11-24T23:51:06.448Z,101082.25
2022-11-24T23:53:34.916Z,101077.84
2022-11-24T23:56:03.162Z,101077.19
2022-11-24T23:58:31.537Z,101068.84
